INFORMACIÓN METAR y TAF
METAR FOR LXGB
ADDS - METARS form results

(1407 UTC 30 May 2020)
Data provider http://aviationweather.gov/metar/data/
 
METAR text: LXGB 301350Z 08015KT 9999 FEW015 BKN200 22/17 Q1013 NOSIG RMK BLU BLU
Conditions at: LXGB (GIBRALTAR (CIV/M, GI) observed 1350 UTC 30 May 2020
Temperature: 22.0°C (72°F)
Dewpoint: 17.0°C (63°F) [RH = 73%]
Pressure (altimeter): 29.91 inches Hg (1013.0 mb)
Winds: from the E (80 degrees) at 17 MPH (15 knots; 7.7 m/s)
Visibility: 6 or more miles (10+ km)
Ceiling: 20000 feet AGL
Clouds: few clouds at 1500 feet AGL
broken clouds at 20000 feet AGL
Weather: no significant weather observed at this time

METAR text: LXGB 301320Z 08015KT 9999 FEW014 BKN200 22/17 Q1014 NOSIG RMK BLU BLU
Conditions at: LXGB (GIBRALTAR (CIV/M, GI) observed 1320 UTC 30 May 2020
Temperature: 22.0°C (72°F)
Dewpoint: 17.0°C (63°F) [RH = 73%]
Pressure (altimeter): 29.94 inches Hg (1014.0 mb)
Winds: from the E (80 degrees) at 17 MPH (15 knots; 7.7 m/s)
Visibility: 6 or more miles (10+ km)
Ceiling: 20000 feet AGL
Clouds: few clouds at 1400 feet AGL
broken clouds at 20000 feet AGL
Weather: no significant weather observed at this time

Forecast for: LXGB (GIBRALTAR (CIV/M, GI)
Text: TAF LXGB 301306Z 3015/3023 09015G25KT 9999 FEW014
Forecast period: 1500 to 1600 UTC 30 May 2020
Forecast type: FROM: standard forecast or significant change
Winds: from the E (90 degrees) at 17 MPH (15 knots; 7.7 m/s)
gusting to 29 MPH (25 knots; 12.9 m/s)
Visibility: 6 or more miles 10+ km)
Ceiling: at least 12,000 feet AGL
Clouds: few clouds at 1400 feet AGL
Weather: no significant weather forecast for this period
Text: PROB30
Forecast period: 1500 to 2100 UTC 30 May 2020
Forecast type: TEMPORARY: The following changes expected for less than half the time period
Visibility: missing
Ceiling: at least 12,000 feet AGL
Clouds: scattered clouds at 2000 feet AGL
Weather: no significant weather forecast for this period
Text: TEMPO 3015/3021 SCT020
Forecast period: 1600 to 2300 UTC 30 May 2020
Forecast type: BECOMING: Conditions expected to become as follows by 1900 UTC 30 May 2020
Winds: from the E (80 degrees) at 14 MPH (12 knots; 6.2 m/s)
Visibility: 6 or more miles 10+ km)
Ceiling: at least 12,000 feet AGL
Clouds: few clouds at 1400 feet AGL
Weather: no significant weather forecast for this period

 MAPA DE AEROPUERTO

 INFORMACIÓN DE PISTA
Pista 09 Longitud 6000 ft Ancho 150 ft
Elevación 10 ft Umbral desplazado 302 ft Rumbo de pista 88
Pista 27 Longitud 6000 ft Ancho 150 ft
Elevación 11 ft Umbral desplazado 368 ft Rumbo de pista 268

 FRECUANCIAS DEL AEROPUERTO
Tipo A/D Nombre APP Frecuencia 122.8 MHZ
Tipo OPS Nombre GIB TALKDO Frecuencia 130.4 MHZ
Tipo TWR Nombre TWR Frecuencia 131.2 MHZ

 RADIO AYUDAS DEL AEROPUERTO
Tipo TACAN Nombre Gibraltar Frecuencia 113600 KHZ



Powered by Virtual Airlines Manager [v2.6.2]